BLUO2: Blue River, Blue, OK

                                SHEF ID:       BLUO2     Blue River near Blue, OK
STATION TYPE:
Regulating: Stage = 21.00, Flow = 5001

PRECIP STAGE RIV-FLOW BAT-LOAD
in ft cfs volt
Ccp-Rev Ccp-Rev Ccp-Rev Ccp-Rev
(America/Chicago)
05/03 00:00 0.00 6.94 178 12.89
05/03 01:00 0.00 6.95 180 12.89
05/03 02:00 0.00 6.95 180 12.89
05/03 03:00 0.00 6.94 178 12.81
05/03 04:00 0.00 6.93 177 12.81
05/03 05:00 0.00 6.92 175 12.81
05/03 06:00 0.00 6.92 175 12.73
05/03 07:00 0.00 6.90 173 12.73
05/03 08:00 0.00 6.90 173 12.81
05/03 09:00 0.00 6.89 171 13.44
05/03 10:00 0.00 6.87 168 13.68
05/03 11:00 0.00 6.87 168 14.24
05/03 12:00 0.00 6.87 168 14.32
05/03 13:00 0.00 6.85 166 14.24
05/03 14:00 0.00 6.86 167 13.76
05/03 15:00 0.00 6.82 162 13.44
05/03 16:00 0.00 6.82 162 13.53
05/03 17:00 0.00 6.80 159 13.84
05/03 18:00 0.00 6.80 159 14.00
05/03 19:00 0.00 6.79 158 13.84
05/03 20:00 0.00 6.80 159 13.29
05/03 21:00 0.00 6.79 158 12.97
05/03 22:00 0.00 6.78 156 12.97
05/03 23:00 0.00 6.77 155 12.97
Data processed at Mon 04May2026 04:47 GMT

NOTICE: If you are parsing this page

Please convert to using our Data API. Starting early 2026 we will be migrating to: https://water.usace.army.mil with modern pages rendered in JavaScript. When this migration completes you will no longer be able to scrape this page! CWMSDataAPI (CDA)

Timeseries IDs (TSIDs)

TSIDs used from left to right in the data table
BLUE.Precip-Inc.Total.1Hour.1Hour.Ccp-Rev
BLUE.Stage.Inst.1Hour.0.Ccp-Rev
BLUE.Flow.Inst.1Hour.0.Ccp-Rev
BLUE.Volt-Battery Load.Inst.1Hour.0.Ccp-Rev

                            

All information presented herein is the property of the government of the United States of America and may be revised or deleted at any time without prior notice. Dissemination of this information without the expressed written consent of the Public Affairs Office, Tulsa District U.S. Army Corps of Engineers is strictly prohibited. These data are gathered electronically and, as presented, have NOT undergone any form of quality control. These data are NOT guaranteed to be valid or correct.